Time;durP1;ratioP1;P1;durP2;ratioP2;P2;SDS_P1;SDS_P2;PMS_P1;PMS_P2;Temp;Humidity;BMP_temperature;BMP_pressure;BME280_temperature;BME280_humidity;BME280_pressure;Samples;Min_cycle;Max_cycle;Signal;HPM_P1;HPM_P2
2023/11/18 00:01:40;;;;;;;5.83;4.00;;;6.60;99.90;;;;;;4997917;28;20486;-58
2023/11/18 00:04:15;;;;;;;6.60;3.90;;;6.60;99.90;;;;;;4997774;28;20465;-57
2023/11/18 00:06:43;;;;;;;7.10;4.53;;;6.60;99.90;;;;;;4997617;28;20450;-58
2023/11/18 00:09:12;;;;;;;9.60;4.80;;;6.60;99.90;;;;;;4998188;28;20451;-57
2023/11/18 00:11:42;;;;;;;6.33;4.63;;;6.70;99.90;;;;;;4998053;28;20465;-54
2023/11/18 00:14:11;;;;;;;7.07;4.60;;;6.60;99.90;;;;;;4998014;28;20483;-53
2023/11/18 00:16:38;;;;;;;14.77;6.07;;;6.60;99.90;;;;;;4997668;28;20463;-53
2023/11/18 00:19:05;;;;;;;7.90;3.90;;;6.60;99.90;;;;;;4997088;28;20478;-52
2023/11/18 00:21:32;;;;;;;6.63;4.33;;;6.60;99.90;;;;;;4998012;28;20470;-53
2023/11/18 00:23:59;;;;;;;7.30;4.10;;;6.50;99.90;;;;;;4997543;28;20426;-55
2023/11/18 00:26:26;;;;;;;6.33;4.37;;;6.60;99.90;;;;;;4996966;28;20474;-56
2023/11/18 00:28:54;;;;;;;6.13;4.00;;;6.50;99.90;;;;;;4997045;28;20473;-57
2023/11/18 00:31:21;;;;;;;4.13;3.10;;;6.50;99.90;;;;;;4997531;28;20543;-53
2023/11/18 00:33:48;;;;;;;6.67;3.87;;;6.50;99.90;;;;;;4996354;28;20427;-55
2023/11/18 00:36:15;;;;;;;5.50;3.30;;;6.50;99.90;;;;;;4996948;28;20435;-55
2023/11/18 00:38:42;;;;;;;6.43;4.00;;;6.60;99.90;;;;;;4997662;28;20450;-56
2023/11/18 00:41:10;;;;;;;6.60;4.17;;;6.50;99.90;;;;;;4997299;28;20462;-59
2023/11/18 00:43:37;;;;;;;5.50;4.07;;;6.60;99.90;;;;;;4998549;28;20482;-60
2023/11/18 00:46:05;;;;;;;5.50;3.60;;;6.50;99.90;;;;;;4998962;28;20563;-57
2023/11/18 00:48:32;;;;;;;6.70;4.10;;;6.50;99.90;;;;;;4999029;28;20438;-60
2023/11/18 00:50:59;;;;;;;5.83;4.17;;;6.50;99.90;;;;;;4999306;28;20470;-51
2023/11/18 00:53:26;;;;;;;7.03;4.60;;;6.40;99.90;;;;;;4998423;28;20486;-55
2023/11/18 00:55:53;;;;;;;5.53;4.00;;;6.40;99.90;;;;;;4997537;28;20483;-56
2023/11/18 00:58:20;;;;;;;7.10;4.23;;;6.40;99.90;;;;;;4998597;28;20450;-59
2023/11/18 01:00:48;;;;;;;4.30;3.53;;;6.30;99.90;;;;;;4997379;28;20495;-57
2023/11/18 01:03:16;;;;;;;8.20;4.90;;;6.30;99.90;;;;;;4997279;28;20403;-58
2023/11/18 01:05:46;;;;;;;5.77;4.13;;;6.30;99.90;;;;;;4997602;28;20419;-60
2023/11/18 01:08:13;;;;;;;6.50;4.23;;;5.70;99.90;;;;;;4997693;28;20463;-58
2023/11/18 01:10:40;;;;;;;6.70;4.00;;;6.20;99.90;;;;;;4997426;28;20447;-60
2023/11/18 01:13:08;;;;;;;8.20;4.90;;;6.20;99.90;;;;;;4997413;28;20458;-62
2023/11/18 01:15:35;;;;;;;5.70;4.17;;;6.20;99.90;;;;;;4997087;28;20487;-59
2023/11/18 01:18:02;;;;;;;6.53;4.53;;;6.20;99.90;;;;;;4997093;28;20438;-57
2023/11/18 01:20:32;;;;;;;5.70;4.10;;;6.10;99.90;;;;;;4997378;28;20474;-60
2023/11/18 01:23:00;;;;;;;5.77;4.57;;;6.10;99.90;;;;;;4997184;28;20427;-57
2023/11/18 01:25:27;;;;;;;8.33;3.80;;;6.10;99.90;;;;;;4997069;28;20442;-61
2023/11/18 01:27:53;;;;;;;5.03;4.33;;;6.10;99.90;;;;;;4997292;28;20466;-56
2023/11/18 01:30:20;;;;;;;8.20;5.10;;;6.10;99.90;;;;;;4996809;28;20435;-59
2023/11/18 01:32:48;;;;;;;5.70;4.47;;;6.10;99.90;;;;;;4996658;28;20443;-60
2023/11/18 01:35:16;;;;;;;6.93;3.70;;;6.10;99.90;;;;;;4996375;28;20530;-55
2023/11/18 01:37:44;;;;;;;9.30;5.00;;;6.20;99.90;;;;;;4996726;28;20434;-60
2023/11/18 01:40:13;;;;;;;4.90;3.30;;;6.20;99.90;;;;;;4997394;28;20474;-58
2023/11/18 01:42:43;;;;;;;5.03;4.13;;;6.20;99.90;;;;;;4997405;28;20914;-51
2023/11/18 01:45:11;;;;;;;8.27;5.70;;;6.20;99.90;;;;;;4997369;28;20450;-58
2023/11/18 01:47:40;;;;;;;6.10;3.83;;;6.20;99.90;;;;;;4997463;28;20489;-60
2023/11/18 01:50:11;;;;;;;5.37;3.37;;;6.20;99.90;;;;;;4996100;28;20442;-58
2023/11/18 01:52:38;;;;;;;9.10;5.60;;;6.20;99.90;;;;;;4996130;28;20442;-61
2023/11/18 01:55:07;;;;;;;6.27;4.23;;;6.20;99.90;;;;;;4995825;28;20502;-57
2023/11/18 01:57:36;;;;;;;6.73;4.17;;;6.30;99.90;;;;;;4996106;28;20432;-60
2023/11/18 02:00:06;;;;;;;5.87;4.07;;;6.30;99.90;;;;;;4995638;28;20445;-61
2023/11/18 02:02:37;;;;;;;6.37;4.83;;;6.20;99.90;;;;;;4996186;28;20485;-60
2023/11/18 02:05:07;;;;;;;7.93;4.80;;;6.20;99.90;;;;;;4995400;28;20443;-59
2023/11/18 02:07:36;;;;;;;4.40;3.43;;;6.30;99.90;;;;;;4996467;28;20519;-57
2023/11/18 02:10:03;;;;;;;6.60;4.50;;;6.30;99.90;;;;;;4999424;28;20453;-61
2023/11/18 02:12:43;;;;;;;6.27;3.87;;;6.20;99.90;;;;;;4998877;28;20447;-60
2023/11/18 02:15:14;;;;;;;5.70;3.53;;;6.20;99.90;;;;;;4999376;28;20517;-61
2023/11/18 02:17:43;;;;;;;6.53;3.87;;;6.20;99.90;;;;;;4999136;28;20498;-60
2023/11/18 02:20:15;;;;;;;5.83;3.73;;;6.20;99.90;;;;;;4999335;28;20533;-60
2023/11/18 02:22:46;;;;;;;7.57;4.73;;;6.20;99.90;;;;;;4998723;28;20479;-61
2023/11/18 02:25:17;;;;;;;8.10;4.00;;;6.20;99.90;;;;;;4998843;28;20416;-60
2023/11/18 02:27:46;;;;;;;5.77;3.60;;;6.20;99.90;;;;;;4999423;28;20421;-61
2023/11/18 02:30:16;;;;;;;6.00;3.80;;;6.10;99.90;;;;;;4999632;28;20431;-61
2023/11/18 02:32:49;;;;;;;5.97;3.90;;;6.20;99.90;;;;;;4999196;28;20431;-60
2023/11/18 02:35:25;;;;;;;9.37;4.30;;;6.20;99.90;;;;;;4999576;28;20514;-59
2023/11/18 02:37:54;;;;;;;6.57;4.10;;;6.20;99.90;;;;;;5000556;28;20434;-58
2023/11/18 02:40:30;;;;;;;7.77;3.87;;;6.20;99.90;;;;;;4999882;28;20519;-60
2023/11/18 02:43:00;;;;;;;6.03;3.80;;;6.20;99.90;;;;;;4999952;28;20437;-61
2023/11/18 02:45:28;;;;;;;5.83;4.47;;;6.20;99.90;;;;;;4998965;28;20419;-60
2023/11/18 02:47:57;;;;;;;6.87;4.10;;;6.20;99.90;;;;;;4998803;28;20498;-59
2023/11/18 02:50:24;;;;;;;7.10;4.70;;;6.10;99.90;;;;;;4998959;28;20491;-61
2023/11/18 02:52:51;;;;;;;5.30;4.13;;;6.20;99.90;;;;;;4998722;28;20442;-56
2023/11/18 02:55:21;;;;;;;6.73;3.97;;;6.20;99.90;;;;;;4998618;28;20507;-58
2023/11/18 02:57:48;;;;;;;3.50;3.00;;;6.20;99.90;;;;;;4999065;28;20439;-58
2023/11/18 03:00:21;;;;;;;8.23;4.17;;;6.20;99.90;;;;;;4998673;28;20440;-58
2023/11/18 03:02:51;;;;;;;7.90;3.57;;;6.10;99.90;;;;;;4999209;28;20471;-60
2023/11/18 03:05:18;;;;;;;5.30;2.87;;;6.10;99.90;;;;;;4998710;28;20433;-59
2023/11/18 03:07:49;;;;;;;6.97;4.43;;;6.10;99.90;;;;;;4998275;28;20478;-61
2023/11/18 03:10:20;;;;;;;4.97;3.53;;;6.10;99.90;;;;;;4998757;28;20443;-58
2023/11/18 03:12:48;;;;;;;5.93;4.30;;;6.10;99.90;;;;;;4999280;28;20463;-60
2023/11/18 03:15:17;;;;;;;6.40;3.80;;;6.20;99.90;;;;;;4999028;28;20497;-62
2023/11/18 03:17:45;;;;;;;4.93;3.60;;;6.20;99.90;;;;;;4999642;28;20435;-61
2023/11/18 03:20:16;;;;;;;7.70;4.20;;;6.30;99.90;;;;;;4998442;28;20475;-62
2023/11/18 03:22:44;;;;;;;5.67;4.30;;;6.30;99.90;;;;;;4998671;28;20454;-61
2023/11/18 03:25:13;;;;;;;8.20;3.97;;;6.30;99.90;;;;;;4998804;28;20506;-60
2023/11/18 03:27:40;;;;;;;12.23;4.83;;;6.30;99.90;;;;;;4999006;28;20451;-58
2023/11/18 03:30:08;;;;;;;7.90;4.13;;;6.30;99.90;;;;;;4999166;28;20446;-56
2023/11/18 03:32:37;;;;;;;5.80;3.90;;;6.30;99.90;;;;;;4999458;28;20430;-59
2023/11/18 03:35:08;;;;;;;7.07;3.87;;;6.30;99.90;;;;;;4999697;28;20487;-57
2023/11/18 03:37:35;;;;;;;6.07;4.13;;;6.30;99.90;;;;;;5000658;28;20443;-58
2023/11/18 03:40:02;;;;;;;9.00;3.90;;;6.30;99.90;;;;;;5000249;28;20439;-55
2023/11/18 03:42:29;;;;;;;6.13;3.97;;;6.30;99.90;;;;;;5000265;28;20423;-55
2023/11/18 03:44:57;;;;;;;6.20;3.83;;;6.30;99.90;;;;;;4999470;28;20445;-59
2023/11/18 03:47:24;;;;;;;5.43;4.10;;;6.30;99.90;;;;;;4999633;28;20455;-57
2023/11/18 03:49:54;;;;;;;7.17;3.90;;;6.30;99.90;;;;;;4998920;28;20461;-57
2023/11/18 03:52:21;;;;;;;3.80;3.13;;;6.30;99.90;;;;;;4998732;28;20439;-61
2023/11/18 03:54:50;;;;;;;5.50;3.80;;;6.30;99.90;;;;;;4998396;28;20471;-60
2023/11/18 03:57:17;;;;;;;8.23;3.70;;;6.30;99.90;;;;;;4998418;28;20455;-61
2023/11/18 03:59:44;;;;;;;4.67;2.73;;;6.30;99.90;;;;;;4997760;28;20478;-57
2023/11/18 04:02:11;;;;;;;5.37;3.50;;;6.30;99.90;;;;;;4997647;28;20455;-58
2023/11/18 04:04:40;;;;;;;8.00;4.07;;;6.30;99.90;;;;;;4997721;28;20775;-60
2023/11/18 04:07:10;;;;;;;5.67;3.60;;;6.30;99.90;;;;;;4997989;28;20471;-60
2023/11/18 04:09:41;;;;;;;5.60;3.33;;;6.30;99.90;;;;;;4997760;28;20466;-61
2023/11/18 04:12:08;;;;;;;5.17;3.30;;;6.20;99.90;;;;;;4997540;28;20447;-59
2023/11/18 04:14:36;;;;;;;6.30;3.87;;;6.20;99.90;;;;;;4997509;28;20470;-56
2023/11/18 04:17:03;;;;;;;5.03;3.37;;;6.20;99.90;;;;;;4997941;28;20487;-59
2023/11/18 04:19:30;;;;;;;9.60;3.73;;;6.20;99.90;;;;;;4998213;28;20454;-58
2023/11/18 04:21:57;;;;;;;5.77;4.00;;;6.20;99.90;;;;;;4998205;28;20451;-56
2023/11/18 04:24:25;;;;;;;6.83;4.10;;;6.20;99.90;;;;;;4998499;28;20447;-59
2023/11/18 04:26:52;;;;;;;9.00;4.70;;;6.20;99.90;;;;;;4997435;28;20467;-62
2023/11/18 04:29:19;;;;;;;6.97;4.73;;;6.20;99.90;;;;;;4997468;28;20452;-62
2023/11/18 04:31:47;;;;;;;5.70;3.33;;;6.20;99.90;;;;;;4996751;28;20466;-59
2023/11/18 04:34:14;;;;;;;7.53;3.50;;;6.20;99.90;;;;;;4996990;28;20486;-58
2023/11/18 04:36:42;;;;;;;8.13;4.17;;;6.20;99.90;;;;;;4997462;28;20486;-59
2023/11/18 04:39:11;;;;;;;6.80;4.30;;;6.30;99.90;;;;;;4996887;28;20474;-61
2023/11/18 04:41:40;;;;;;;7.07;3.30;;;6.20;99.90;;;;;;4997105;28;20427;-57
2023/11/18 04:44:07;;;;;;;5.63;3.50;;;6.30;99.90;;;;;;4996511;28;20462;-59
2023/11/18 04:46:34;;;;;;;4.53;3.50;;;6.20;99.90;;;;;;4996691;28;20470;-60
2023/11/18 04:49:03;;;;;;;6.40;4.83;;;6.20;99.90;;;;;;4996749;28;20435;-60
2023/11/18 04:51:29;;;;;;;6.20;3.83;;;6.20;99.90;;;;;;4996770;28;20466;-61
2023/11/18 04:53:56;;;;;;;6.90;3.40;;;6.20;99.90;;;;;;4996242;28;20509;-61
2023/11/18 04:56:23;;;;;;;5.53;4.17;;;6.10;99.90;;;;;;4996958;28;20506;-62
2023/11/18 04:58:51;;;;;;;9.60;5.20;;;6.10;99.90;;;;;;4996809;28;20458;-61
2023/11/18 05:01:18;;;;;;;12.03;5.20;;;6.10;99.90;;;;;;4997218;28;20451;-60
2023/11/18 05:03:45;;;;;;;6.10;3.43;;;6.10;99.90;;;;;;4997557;28;20447;-60
2023/11/18 05:06:12;;;;;;;5.57;4.47;;;6.10;99.90;;;;;;4997463;28;20470;-60
2023/11/18 05:08:39;;;;;;;5.43;4.20;;;6.00;99.90;;;;;;4997149;28;20454;-57
2023/11/18 05:11:06;;;;;;;7.50;4.93;;;6.10;99.90;;;;;;4996884;28;20446;-55
2023/11/18 05:13:33;;;;;;;8.30;4.67;;;6.10;99.90;;;;;;4996490;28;20471;-61
2023/11/18 05:16:03;;;;;;;7.20;4.00;;;6.10;99.90;;;;;;4996450;28;20494;-57
2023/11/18 05:18:35;;;;;;;6.23;4.03;;;6.10;99.90;;;;;;4996436;28;20442;-61
2023/11/18 05:21:04;;;;;;;6.30;4.70;;;6.10;99.90;;;;;;4997324;28;20431;-60
2023/11/18 05:23:31;;;;;;;5.90;3.93;;;6.10;99.90;;;;;;4996248;28;20462;-58
2023/11/18 05:25:58;;;;;;;7.43;4.20;;;6.10;99.90;;;;;;4995653;28;20467;-60
2023/11/18 05:28:25;;;;;;;8.13;4.37;;;6.20;99.90;;;;;;4996028;28;20445;-61
2023/11/18 05:30:58;;;;;;;7.90;4.57;;;6.20;99.90;;;;;;4995771;28;20447;-62
2023/11/18 05:33:27;;;;;;;5.40;4.17;;;6.20;99.90;;;;;;4996075;28;20475;-61
2023/11/18 05:35:54;;;;;;;7.00;4.83;;;6.20;99.90;;;;;;4996377;28;20466;-62
2023/11/18 05:38:26;;;;;;;6.50;4.23;;;6.20;99.90;;;;;;4996302;28;20558;-59
2023/11/18 05:40:56;;;;;;;5.73;4.00;;;6.10;99.90;;;;;;4996166;28;20438;-61
2023/11/18 05:43:25;;;;;;;8.47;4.97;;;6.10;99.90;;;;;;4995647;28;20435;-62
2023/11/18 05:59:35;;;;;;;6.40;4.23;;;6.00;99.90;;;;;;6129543;22;1444357;-56
2023/11/18 06:02:07;;;;;;;7.60;4.17;;;6.00;99.90;;;;;;6186745;23;20383;-60
2023/11/18 06:04:35;;;;;;;11.27;4.80;;;6.00;99.90;;;;;;6187681;23;20385;-61
2023/11/18 06:07:06;;;;;;;5.70;4.20;;;6.20;99.90;;;;;;6187044;23;20958;-59
2023/11/18 06:09:44;;;;;;;7.93;4.90;;;6.00;99.90;;;;;;6187640;23;20465;-58
2023/11/18 06:12:11;;;;;;;7.40;4.73;;;6.60;99.90;;;;;;6186865;23;20432;-60
2023/11/18 06:14:39;;;;;;;8.70;4.67;;;6.00;99.90;;;;;;6187150;23;20460;-57
2023/11/18 06:17:07;;;;;;;8.00;5.00;;;6.00;99.90;;;;;;6186873;23;20400;-59
2023/11/18 06:19:34;;;;;;;9.80;5.57;;;6.00;99.90;;;;;;6186813;23;20440;-56
2023/11/18 06:22:01;;;;;;;6.70;4.80;;;6.00;99.90;;;;;;6187858;23;20473;-60
2023/11/18 06:24:29;;;;;;;9.33;5.40;;;6.00;99.90;;;;;;6188519;23;20412;-60
2023/11/18 06:26:55;;;;;;;8.90;5.70;;;6.00;99.90;;;;;;6189496;23;20500;-57
2023/11/18 06:29:23;;;;;;;5.10;3.80;;;6.00;99.90;;;;;;6190191;23;20413;-59
2023/11/18 06:31:50;;;;;;;11.40;5.47;;;6.00;99.90;;;;;;6189663;23;20440;-57
2023/11/18 06:34:18;;;;;;;6.53;4.10;;;6.00;99.90;;;;;;6189597;23;20407;-57
2023/11/18 06:36:45;;;;;;;5.57;4.20;;;6.00;99.90;;;;;;6187723;23;20412;-60
2023/11/18 06:39:13;;;;;;;6.87;4.30;;;5.90;99.90;;;;;;6186514;23;20417;-59
2023/11/18 06:41:48;;;;;;;6.80;4.33;;;5.90;99.90;;;;;;6185590;23;20433;-60
2023/11/18 06:44:18;;;;;;;7.07;3.80;;;6.00;99.90;;;;;;6186604;23;20384;-58
2023/11/18 06:46:45;;;;;;;7.03;4.37;;;6.00;99.90;;;;;;6186160;23;20408;-60
2023/11/18 06:49:15;;;;;;;6.87;4.20;;;5.90;99.90;;;;;;6186636;23;20397;-60
2023/11/18 06:51:42;;;;;;;8.30;5.00;;;5.90;99.90;;;;;;6186172;23;20493;-60
2023/11/18 06:54:09;;;;;;;9.00;5.53;;;5.90;99.90;;;;;;6186178;23;20457;-60
2023/11/18 06:56:38;;;;;;;7.27;4.57;;;5.80;99.90;;;;;;6186006;23;20405;-58
2023/11/18 06:59:06;;;;;;;8.40;4.70;;;5.80;99.90;;;;;;6182441;23;20453;-60
2023/11/18 07:01:33;;;;;;;10.80;5.00;;;5.80;99.90;;;;;;6178913;23;20465;-59
2023/11/18 07:04:00;;;;;;;9.87;5.33;;;5.70;99.90;;;;;;6179946;23;20406;-60
2023/11/18 07:06:28;;;;;;;10.07;5.53;;;5.70;99.90;;;;;;6179156;23;20401;-60
2023/11/18 07:08:58;;;;;;;7.40;4.73;;;5.90;99.90;;;;;;6179150;23;20919;-57
2023/11/18 07:11:25;;;;;;;10.57;4.50;;;5.90;99.90;;;;;;6179911;23;20457;-59
2023/11/18 07:13:56;;;;;;;9.07;5.13;;;5.90;99.90;;;;;;6179329;23;20394;-60
2023/11/18 07:16:23;;;;;;;9.17;5.00;;;6.00;99.90;;;;;;6179927;23;20406;-57
2023/11/18 07:18:50;;;;;;;10.00;4.60;;;6.10;99.90;;;;;;6179506;23;20433;-59
2023/11/18 07:21:17;;;;;;;5.70;4.00;;;6.10;99.90;;;;;;6179554;23;20434;-60
2023/11/18 07:23:46;;;;;;;8.77;4.90;;;6.10;99.90;;;;;;6180242;23;20410;-61
2023/11/18 07:26:13;;;;;;;7.63;4.83;;;6.20;99.90;;;;;;6179917;23;20440;-59
2023/11/18 07:28:40;;;;;;;9.87;4.77;;;6.20;99.90;;;;;;6179394;23;20456;-59
2023/11/18 07:31:07;;;;;;;7.30;4.17;;;6.20;99.90;;;;;;6179619;23;21089;-58
2023/11/18 07:33:34;;;;;;;8.20;5.00;;;6.20;99.90;;;;;;6179180;23;20404;-59
2023/11/18 07:36:02;;;;;;;9.33;5.73;;;6.20;99.90;;;;;;6178818;23;20413;-59
2023/11/18 07:38:30;;;;;;;7.47;5.03;;;6.20;99.90;;;;;;6179651;23;20441;-59
2023/11/18 07:40:59;;;;;;;7.20;4.70;;;6.10;99.90;;;;;;6180642;23;20429;-54
2023/11/18 07:43:28;;;;;;;7.37;4.50;;;6.20;99.90;;;;;;6181234;23;20393;-59
2023/11/18 07:46:22;;;;;;;10.20;5.60;;;6.20;99.90;;;;;;6181355;23;20417;-54
2023/11/18 07:48:49;;;;;;;8.83;5.23;;;6.30;99.90;;;;;;6180519;23;20409;-59
2023/11/18 07:51:15;;;;;;;6.77;4.70;;;6.30;99.90;;;;;;6180043;23;20716;-59
2023/11/18 07:53:42;;;;;;;6.90;4.57;;;6.40;99.90;;;;;;6180248;23;20406;-58
2023/11/18 07:56:12;;;;;;;6.83;3.97;;;6.40;99.90;;;;;;6179765;23;20406;-60
2023/11/18 07:58:39;;;;;;;9.77;6.47;;;6.40;99.90;;;;;;6179318;23;20409;-59
2023/11/18 08:01:07;;;;;;;8.67;6.17;;;6.50;99.90;;;;;;6179973;23;20409;-60
2023/11/18 08:03:34;;;;;;;6.67;4.80;;;6.50;99.90;;;;;;6179785;23;20420;-60
2023/11/18 08:06:02;;;;;;;11.07;6.00;;;6.40;99.90;;;;;;6179505;23;20386;-60
2023/11/18 08:08:28;;;;;;;10.10;5.90;;;6.50;99.90;;;;;;6179371;23;20441;-60
2023/11/18 08:10:56;;;;;;;12.57;7.40;;;6.50;99.90;;;;;;6178694;23;20433;-61
2023/11/18 08:13:24;;;;;;;8.70;5.47;;;6.50;99.90;;;;;;6179384;23;20413;-60
2023/11/18 08:16:03;;;;;;;16.80;6.27;;;6.50;99.90;;;;;;6179460;23;20409;-59
2023/11/18 08:18:31;;;;;;;13.53;7.73;;;6.50;99.90;;;;;;6178991;23;20453;-60
2023/11/18 08:20:59;;;;;;;7.33;4.20;;;6.40;99.90;;;;;;6178938;23;20410;-62
2023/11/18 08:23:27;;;;;;;8.00;4.80;;;6.40;99.90;;;;;;6179000;23;20406;-59
2023/11/18 08:25:56;;;;;;;6.73;4.60;;;6.40;99.90;;;;;;6178805;23;20457;-60
2023/11/18 08:28:25;;;;;;;7.57;4.70;;;6.50;99.90;;;;;;6178726;23;20453;-58
2023/11/18 08:30:52;;;;;;;10.70;5.93;;;6.50;99.90;;;;;;6179303;23;20429;-60
2023/11/18 08:33:20;;;;;;;8.83;5.03;;;6.60;99.90;;;;;;6179309;23;20413;-59
2023/11/18 08:35:49;;;;;;;9.77;5.30;;;6.60;99.90;;;;;;6179001;23;20412;-59
2023/11/18 08:38:17;;;;;;;8.30;5.23;;;6.60;99.90;;;;;;6179285;23;20429;-60
2023/11/18 08:40:45;;;;;;;9.63;4.97;;;6.50;99.90;;;;;;6179079;23;20405;-58
2023/11/18 08:43:12;;;;;;;9.40;4.80;;;6.60;99.90;;;;;;6178836;23;20416;-58
2023/11/18 08:45:41;;;;;;;9.23;5.30;;;6.60;99.90;;;;;;6179283;23;20394;-58
2023/11/18 08:48:08;;;;;;;7.83;5.27;;;6.60;99.90;;;;;;6178308;23;20441;-55
2023/11/18 08:50:36;;;;;;;8.20;5.17;;;6.60;99.90;;;;;;6179414;23;20443;-57
2023/11/18 08:53:04;;;;;;;10.40;4.23;;;6.60;99.90;;;;;;6179944;23;20944;-58
2023/11/18 08:55:41;;;;;;;8.33;3.87;;;6.70;99.90;;;;;;6180137;23;20416;-59
2023/11/18 08:58:18;;;;;;;7.23;4.73;;;6.70;99.90;;;;;;6179008;23;20436;-59
2023/11/18 09:00:53;;;;;;;8.10;4.70;;;6.70;99.90;;;;;;6180130;23;20401;-59
2023/11/18 09:03:28;;;;;;;7.77;5.13;;;6.80;99.90;;;;;;6178528;23;20429;-56
2023/11/18 09:06:03;;;;;;;7.23;4.23;;;6.90;99.90;;;;;;6179811;23;20428;-60
2023/11/18 09:08:34;;;;;;;7.10;4.73;;;6.80;99.90;;;;;;6179779;23;20429;-60
2023/11/18 09:11:02;;;;;;;10.03;6.50;;;6.70;99.90;;;;;;6164330;23;20390;-60
2023/11/18 09:13:29;;;;;;;6.93;4.83;;;6.70;99.90;;;;;;6171309;23;20554;-58
2023/11/18 09:16:00;;;;;;;6.47;4.40;;;6.70;99.90;;;;;;6171403;23;20425;-59
2023/11/18 09:18:27;;;;;;;7.47;5.03;;;6.80;99.90;;;;;;6162034;23;20381;-60
2023/11/18 09:20:54;;;;;;;6.50;4.63;;;6.80;99.90;;;;;;6166456;23;20401;-58
2023/11/18 09:23:23;;;;;;;4.80;3.60;;;6.90;99.90;;;;;;6173557;23;20417;-60
2023/11/18 09:25:50;;;;;;;8.60;4.13;;;6.90;99.90;;;;;;6173129;23;20448;-60
2023/11/18 09:28:18;;;;;;;6.87;4.90;;;6.90;99.90;;;;;;6172244;23;20504;-60
2023/11/18 09:30:50;;;;;;;7.33;4.50;;;7.00;99.90;;;;;;6172470;23;20405;-60
2023/11/18 09:33:32;;;;;;;10.30;4.87;;;7.00;99.90;;;;;;6173588;23;20477;-60
2023/11/18 09:36:00;;;;;;;7.37;4.73;;;7.10;99.90;;;;;;6179895;23;20410;-60
2023/11/18 09:38:30;;;;;;;6.87;4.47;;;7.00;99.90;;;;;;6179451;23;20412;-59
2023/11/18 09:41:02;;;;;;;7.60;5.00;;;7.00;99.90;;;;;;6179081;23;20398;-60
2023/11/18 09:43:32;;;;;;;7.00;4.27;;;7.10;99.90;;;;;;6178152;23;20374;-60
2023/11/18 09:46:08;;;;;;;6.23;4.80;;;7.10;99.90;;;;;;6161076;23;20441;-60
2023/11/18 09:48:40;;;;;;;8.83;4.20;;;7.10;99.90;;;;;;6167880;23;20429;-60
2023/11/18 09:51:08;;;;;;;8.20;3.87;;;7.10;99.90;;;;;;6171726;23;20386;-60
2023/11/18 09:53:40;;;;;;;7.90;4.00;;;7.10;99.90;;;;;;6172422;23;20408;-59
2023/11/18 09:56:18;;;;;;;6.63;4.27;;;7.00;99.90;;;;;;6179604;23;20397;-60
2023/11/18 09:59:06;;;;;;;7.90;4.57;;;7.10;99.90;;;;;;6214141;23;20431;-60
2023/11/18 10:01:42;;;;;;;7.23;4.70;;;7.20;99.90;;;;;;6239227;23;20380;-58
2023/11/18 10:04:13;;;;;;;7.00;3.97;;;7.00;99.90;;;;;;6239128;23;20431;-61
2023/11/18 10:06:44;;;;;;;7.50;5.40;;;7.20;99.90;;;;;;6238940;23;20388;-59
2023/11/18 10:09:28;;;;;;;8.30;4.63;;;8.40;99.90;;;;;;6238837;23;20448;-56
2023/11/18 10:12:05;;;;;;;8.07;4.60;;;7.20;99.90;;;;;;6239366;23;20396;-58
2023/11/18 10:14:35;;;;;;;6.20;4.07;;;7.20;99.90;;;;;;6239563;23;20470;-59
2023/11/18 10:17:06;;;;;;;7.33;5.00;;;7.30;99.90;;;;;;6239470;23;20403;-57
2023/11/18 10:19:55;;;;;;;9.03;5.30;;;7.50;99.90;;;;;;6238975;23;20411;-57
2023/11/18 10:22:27;;;;;;;7.10;4.87;;;7.10;99.90;;;;;;6237961;23;20395;-57
2023/11/18 10:24:55;;;;;;;9.07;6.00;;;7.10;99.90;;;;;;6238777;23;20387;-58
2023/11/18 10:27:25;;;;;;;9.67;5.80;;;7.10;99.90;;;;;;6238621;23;20388;-57
2023/11/18 10:29:55;;;;;;;11.50;5.73;;;7.10;99.90;;;;;;6239613;23;20470;-61
2023/11/18 10:32:27;;;;;;;8.90;6.30;;;7.10;99.90;;;;;;6238916;23;20439;-59
2023/11/18 10:34:55;;;;;;;7.90;4.90;;;7.10;99.90;;;;;;6240252;23;20388;-60
2023/11/18 10:37:22;;;;;;;8.80;5.47;;;7.20;99.90;;;;;;6240393;23;20466;-60
2023/11/18 10:39:51;;;;;;;11.67;6.87;;;7.30;99.90;;;;;;6240648;23;20418;-60
2023/11/18 10:42:19;;;;;;;8.07;5.00;;;7.40;99.90;;;;;;6240579;23;20414;-61
2023/11/18 10:44:57;;;;;;;13.27;6.27;;;7.40;99.90;;;;;;6240876;23;20499;-62
2023/11/18 10:47:26;;;;;;;7.83;5.30;;;7.40;99.90;;;;;;6240693;23;20403;-60
2023/11/18 10:49:56;;;;;;;8.47;5.17;;;7.40;99.90;;;;;;6241304;23;20494;-59
2023/11/18 10:52:25;;;;;;;7.30;5.50;;;7.40;99.90;;;;;;6239660;23;20411;-58
2023/11/18 10:54:54;;;;;;;13.50;4.63;;;7.30;99.90;;;;;;6240701;23;20427;-61
2023/11/18 10:57:21;;;;;;;8.77;5.17;;;7.30;99.90;;;;;;6240260;23;20435;-59
2023/11/18 11:00:03;;;;;;;9.07;5.40;;;7.30;99.90;;;;;;6242501;23;20411;-62
2023/11/18 11:02:35;;;;;;;7.70;5.03;;;7.30;99.90;;;;;;6241682;23;20422;-54
2023/11/18 11:05:04;;;;;;;7.50;4.80;;;7.40;99.90;;;;;;6242173;23;20385;-60
2023/11/18 11:07:33;;;;;;;8.67;4.53;;;7.40;99.90;;;;;;6240847;23;20404;-60
2023/11/18 11:10:04;;;;;;;9.40;5.07;;;7.40;99.90;;;;;;6240862;23;20451;-60
2023/11/18 11:12:38;;;;;;;8.30;5.10;;;7.40;99.90;;;;;;6240999;23;20468;-58
2023/11/18 11:15:21;;;;;;;6.37;4.10;;;7.50;99.90;;;;;;6240889;23;20455;-59
2023/11/18 11:17:54;;;;;;;7.63;4.73;;;7.60;99.90;;;;;;6240608;23;20412;-60
2023/11/18 11:20:26;;;;;;;6.93;4.50;;;7.60;99.90;;;;;;6241064;23;20404;-60
2023/11/18 11:23:08;;;;;;;5.43;3.93;;;7.50;99.90;;;;;;6241095;23;20399;-60
2023/11/18 11:25:43;;;;;;;7.30;5.17;;;7.50;99.90;;;;;;6241209;23;20465;-58
2023/11/18 11:28:16;;;;;;;8.03;4.70;;;7.40;99.90;;;;;;6240635;23;20415;-60
2023/11/18 11:30:47;;;;;;;10.50;5.37;;;7.40;99.90;;;;;;6240496;23;20391;-61
2023/11/18 11:33:27;;;;;;;8.33;4.60;;;7.40;99.90;;;;;;6241252;23;20403;-57
2023/11/18 11:35:58;;;;;;;6.53;4.03;;;7.40;99.90;;;;;;6241494;23;20394;-60
2023/11/18 11:38:26;;;;;;;9.83;4.77;;;7.40;99.90;;;;;;6241121;23;20380;-58
2023/11/18 11:40:55;;;;;;;9.57;6.13;;;7.30;99.90;;;;;;6240627;23;20410;-57
2023/11/18 11:43:22;;;;;;;12.23;4.27;;;7.40;99.90;;;;;;6241656;23;20431;-60
2023/11/18 11:45:51;;;;;;;7.90;4.60;;;7.40;99.90;;;;;;6241025;23;20435;-58
2023/11/18 11:48:26;;;;;;;8.90;4.23;;;7.40;99.90;;;;;;6240426;23;20400;-58
2023/11/18 11:51:15;;;;;;;8.13;4.30;;;7.40;99.90;;;;;;6240153;23;20372;-59
2023/11/18 11:53:47;;;;;;;8.23;5.27;;;7.40;99.90;;;;;;6237552;23;20404;-58
2023/11/18 11:56:20;;;;;;;11.70;6.63;;;7.40;99.90;;;;;;6239385;23;20388;-55
2023/11/18 11:58:52;;;;;;;10.80;6.00;;;7.50;99.90;;;;;;6239978;23;20392;-61
2023/11/18 12:01:29;;;;;;;13.73;6.90;;;7.40;99.90;;;;;;6239987;23;20385;-60
2023/11/18 12:03:57;;;;;;;11.20;5.43;;;7.30;99.90;;;;;;6239504;23;20447;-56
2023/11/18 12:06:27;;;;;;;13.27;7.50;;;7.30;99.90;;;;;;6239867;23;20468;-58
2023/11/18 12:08:55;;;;;;;14.33;7.23;;;7.30;99.90;;;;;;6239893;23;20435;-57
2023/11/18 12:11:22;;;;;;;13.03;6.40;;;7.20;99.90;;;;;;6240719;23;20408;-54
2023/11/18 12:14:12;;;;;;;14.47;6.60;;;7.10;99.90;;;;;;6239508;23;20408;-59
2023/11/18 12:17:07;;;;;;;11.50;5.87;;;7.00;99.90;;;;;;6240361;23;20442;-61
2023/11/18 12:19:44;;;;;;;10.80;6.10;;;7.00;99.90;;;;;;6241148;23;20385;-58
2023/11/18 12:22:24;;;;;;;13.27;6.30;;;7.10;99.90;;;;;;6239893;23;20436;-59
2023/11/18 12:25:36;;;;;;;10.30;6.00;;;7.20;99.90;;;;;;6239297;23;20399;-59
2023/11/18 12:28:14;;;;;;;11.87;6.03;;;7.30;99.90;;;;;;6238796;23;20459;-60
2023/11/18 12:31:04;;;;;;;9.83;5.27;;;7.50;99.90;;;;;;6238536;23;20436;-61
2023/11/18 12:34:05;;;;;;;7.80;4.87;;;7.60;99.90;;;;;;6238796;23;20462;-60
2023/11/18 12:36:57;;;;;;;9.30;4.90;;;7.80;99.90;;;;;;6237981;23;20451;-60
2023/11/18 12:40:13;;;;;;;7.60;4.20;;;7.90;99.90;;;;;;6238192;23;20997;-62
2023/11/18 12:43:07;;;;;;;9.00;5.03;;;7.90;99.90;;;;;;6238052;23;20498;-56
2023/11/18 12:46:06;;;;;;;6.40;4.40;;;8.00;99.90;;;;;;6208697;23;20565;-58
2023/11/18 12:48:37;;;;;;;9.73;5.60;;;8.00;99.90;;;;;;6237055;23;20823;-57
2023/11/18 12:51:10;;;;;;;8.63;5.53;;;8.20;99.90;;;;;;6238446;23;20380;-57
2023/11/18 12:53:36;;;;;;;9.53;5.67;;;8.30;99.90;;;;;;6238483;23;20403;-56
2023/11/18 12:56:06;;;;;;;8.53;5.23;;;8.40;99.90;;;;;;6238458;23;20388;-51
2023/11/18 12:58:33;;;;;;;7.40;4.40;;;8.30;99.90;;;;;;6239185;23;20423;-54
2023/11/18 13:01:02;;;;;;;9.40;4.70;;;8.40;99.90;;;;;;6238425;23;20400;-55
2023/11/18 13:03:30;;;;;;;11.73;5.30;;;8.40;99.90;;;;;;6238640;23;20863;-57
2023/11/18 13:05:57;;;;;;;8.60;4.10;;;8.40;99.90;;;;;;6239315;23;20399;-56
2023/11/18 13:08:24;;;;;;;6.70;3.17;;;8.40;99.90;;;;;;6238056;23;20460;-53
2023/11/18 13:10:52;;;;;;;9.80;6.33;;;8.20;99.90;;;;;;6239082;23;20443;-57
2023/11/18 13:13:22;;;;;;;10.70;5.60;;;8.10;99.90;;;;;;6239008;23;20414;-54
2023/11/18 13:15:50;;;;;;;6.67;4.10;;;8.00;99.90;;;;;;6239244;23;20406;-56
2023/11/18 13:18:17;;;;;;;8.77;5.40;;;7.90;99.90;;;;;;6239372;23;20485;-54
2023/11/18 13:20:57;;;;;;;9.33;5.87;;;7.90;99.90;;;;;;6238883;23;20396;-55
2023/11/18 13:23:26;;;;;;;10.20;6.50;;;7.70;99.90;;;;;;6238800;23;20384;-57
2023/11/18 13:25:56;;;;;;;11.40;5.90;;;7.70;99.90;;;;;;6239563;23;20399;-56